createdAt,value
2022-09-06T00:01:27.201Z,57.20
2022-09-06T00:03:54.092Z,57.20
2022-09-06T00:06:21.185Z,57.10
2022-09-06T00:08:49.060Z,56.90
2022-09-06T00:11:17.493Z,57.10
2022-09-06T00:13:44.842Z,57.10
2022-09-06T00:16:40.637Z,57.60
2022-09-06T00:19:07.334Z,56.20
2022-09-06T00:21:35.629Z,56.70
2022-09-06T00:24:03.916Z,56.60
2022-09-06T00:26:30.631Z,56.60
2022-09-06T00:28:57.634Z,56.20
2022-09-06T00:31:26.872Z,56.20
2022-09-06T00:33:53.923Z,56.20
2022-09-06T00:36:21.599Z,56.10
2022-09-06T00:38:48.312Z,56.20
2022-09-06T00:41:16.221Z,57.30
2022-09-06T00:43:43.761Z,56.60
2022-09-06T00:46:15.689Z,56.70
2022-09-06T00:48:44.536Z,57.10
2022-09-06T00:51:14.933Z,57.00
2022-09-06T00:53:41.705Z,57.20
2022-09-06T00:56:09.092Z,57.20
2022-09-06T00:58:36.444Z,57.30
2022-09-06T01:01:03.232Z,57.50
2022-09-06T01:03:29.975Z,57.40
2022-09-06T01:06:17.806Z,57.80
2022-09-06T01:09:24.439Z,57.80
2022-09-06T01:12:03.463Z,57.60
2022-09-06T01:14:38.807Z,58.10
2022-09-06T01:17:34.657Z,58.40
2022-09-06T01:20:23.198Z,58.60
2022-09-06T01:23:28.765Z,58.20
2022-09-06T01:26:07.272Z,58.00
2022-09-06T01:28:37.451Z,58.20
2022-09-06T01:31:09.728Z,58.50
2022-09-06T01:34:02.368Z,58.30
2022-09-06T01:36:36.027Z,58.10
2022-09-06T01:39:02.923Z,57.70
2022-09-06T01:41:30.465Z,57.90
2022-09-06T01:43:58.240Z,58.00
2022-09-06T01:46:39.584Z,58.00
2022-09-06T01:49:24.512Z,58.00
2022-09-06T01:52:04.682Z,58.20
2022-09-06T01:55:00.576Z,58.10
2022-09-06T01:57:41.356Z,57.90
2022-09-06T02:00:17.917Z,57.90
2022-09-06T02:03:07.428Z,57.90
2022-09-06T02:05:48.595Z,58.00
2022-09-06T02:08:21.323Z,58.10
2022-09-06T02:11:00.890Z,57.90
2022-09-06T02:13:32.006Z,57.30
2022-09-06T02:16:05.907Z,57.30
2022-09-06T02:18:56.284Z,56.90
2022-09-06T02:21:31.846Z,56.50
2022-09-06T02:24:02.091Z,56.30
2022-09-06T02:26:35.381Z,56.40
2022-09-06T02:29:02.275Z,57.00
2022-09-06T02:31:40.214Z,56.70
2022-09-06T02:34:07.585Z,56.80
2022-09-06T02:36:36.777Z,56.50
2022-09-06T02:39:04.872Z,56.30
2022-09-06T02:41:32.754Z,56.40
2022-09-06T02:43:59.499Z,56.30
2022-09-06T02:46:26.337Z,56.30
2022-09-06T02:48:53.130Z,55.90
2022-09-06T02:51:20.643Z,56.10
2022-09-06T02:53:47.795Z,56.00
2022-09-06T02:58:41.817Z,55.80
2022-09-06T03:01:09.109Z,56.60
2022-09-06T03:03:35.933Z,56.40
2022-09-06T03:06:02.658Z,56.00
2022-09-06T03:08:33.417Z,56.50
2022-09-06T03:11:00.855Z,56.10
2022-09-06T03:13:27.763Z,56.80
2022-09-06T03:15:56.767Z,55.90
2022-09-06T03:18:24.790Z,56.20
2022-09-06T03:20:52.995Z,55.90
2022-09-06T03:23:20.927Z,56.30
2022-09-06T03:25:47.803Z,56.10
2022-09-06T03:28:14.663Z,55.90
2022-09-06T03:30:44.307Z,56.10
2022-09-06T03:33:11.179Z,56.00
2022-09-06T03:35:37.874Z,56.20
2022-09-06T03:38:04.777Z,56.00
2022-09-06T03:40:31.553Z,56.10
2022-09-06T03:42:58.223Z,56.10
2022-09-06T03:45:24.927Z,55.90
2022-09-06T03:47:51.653Z,55.80
2022-09-06T03:50:18.316Z,55.70
2022-09-06T03:52:44.970Z,55.70
2022-09-06T03:55:12.015Z,55.70
2022-09-06T03:57:38.704Z,55.70
2022-09-06T04:00:05.807Z,55.60
2022-09-06T04:02:35.585Z,55.50
2022-09-06T04:05:02.481Z,55.60
2022-09-06T04:07:29.143Z,55.70
2022-09-06T04:09:55.811Z,55.60
2022-09-06T04:12:22.524Z,55.70
2022-09-06T04:14:49.306Z,55.50
2022-09-06T04:17:16.065Z,55.50
2022-09-06T04:19:42.781Z,55.60
2022-09-06T04:22:09.544Z,55.70
2022-09-06T04:24:36.201Z,55.80
2022-09-06T04:27:02.976Z,55.90
2022-09-06T04:29:29.673Z,56.10
2022-09-06T04:31:56.409Z,56.20
2022-09-06T04:34:23.134Z,56.20
2022-09-06T04:36:49.819Z,56.20
2022-09-06T04:39:16.505Z,56.20
2022-09-06T04:41:43.352Z,56.10
2022-09-06T04:44:10.039Z,56.10
2022-09-06T04:46:36.935Z,56.20
2022-09-06T04:49:03.774Z,56.10
2022-09-06T04:51:31.644Z,56.10
2022-09-06T04:53:58.546Z,56.10
2022-09-06T04:56:26.728Z,56.20
2022-09-06T04:58:54.322Z,56.20
2022-09-06T05:01:21.734Z,55.40
2022-09-06T05:03:48.787Z,55.90
2022-09-06T05:06:21.021Z,56.10
2022-09-06T05:08:48.671Z,56.00
2022-09-06T05:11:16.219Z,56.10
2022-09-06T05:13:43.035Z,55.90
2022-09-06T05:16:10.158Z,55.80
2022-09-06T05:18:37.057Z,55.90
2022-09-06T05:21:03.885Z,55.90
2022-09-06T05:23:30.663Z,55.90
2022-09-06T05:25:57.383Z,55.90
2022-09-06T05:28:24.278Z,55.90
2022-09-06T05:30:50.982Z,55.80
2022-09-06T05:33:22.825Z,55.90
2022-09-06T05:35:49.882Z,55.90
2022-09-06T05:38:17.059Z,55.80
2022-09-06T05:40:44.041Z,55.90
2022-09-06T05:43:10.895Z,56.00
2022-09-06T05:48:05.047Z,56.00
2022-09-06T05:50:31.730Z,56.50
2022-09-06T05:52:58.555Z,56.90
2022-09-06T05:57:52.515Z,57.00
2022-09-06T06:00:19.347Z,57.40
2022-09-06T06:02:49.979Z,57.50
2022-09-06T06:05:16.878Z,57.80
2022-09-06T06:07:43.769Z,57.60
2022-09-06T06:10:11.572Z,57.60
2022-09-06T06:12:38.253Z,57.60
2022-09-06T06:15:05.848Z,57.60
2022-09-06T06:17:33.000Z,57.70
2022-09-06T06:19:59.777Z,57.70
2022-09-06T06:22:26.467Z,57.80
2022-09-06T06:24:53.208Z,57.80
2022-09-06T06:27:19.946Z,57.90
2022-09-06T06:29:46.711Z,58.50
2022-09-06T06:32:13.452Z,58.10
2022-09-06T06:34:40.192Z,58.00
2022-09-06T06:37:06.876Z,58.00
2022-09-06T06:39:33.692Z,58.00
2022-09-06T06:42:00.586Z,58.20
2022-09-06T06:44:29.973Z,58.20
2022-09-06T06:46:58.061Z,58.10
2022-09-06T06:49:25.202Z,58.20
2022-09-06T06:51:52.013Z,58.10
2022-09-06T06:54:18.817Z,58.40
2022-09-06T06:56:45.783Z,58.50
2022-09-06T06:59:12.575Z,58.50
2022-09-06T07:01:39.525Z,58.20
2022-09-06T07:04:07.158Z,58.40
2022-09-06T07:12:20.663Z,58.30
2022-09-06T07:14:47.443Z,58.30
2022-09-06T07:17:14.114Z,58.50
2022-09-06T07:22:27.607Z,58.70
2022-09-06T07:24:54.268Z,58.20
2022-09-06T07:30:08.780Z,58.00
2022-09-06T07:32:35.606Z,58.00
2022-09-06T07:35:02.364Z,57.50
2022-09-06T07:37:29.135Z,56.90
2022-09-06T07:39:55.884Z,57.00
2022-09-06T07:42:22.591Z,57.40
2022-09-06T07:44:49.452Z,57.50
2022-09-06T07:53:08.554Z,57.90
2022-09-06T07:55:37.993Z,57.40
2022-09-06T07:58:04.960Z,57.60
2022-09-06T08:00:31.928Z,57.30
2022-09-06T08:02:58.845Z,57.60
2022-09-06T08:10:59.059Z,57.40
2022-09-06T08:13:25.839Z,58.30
2022-09-06T08:16:00.409Z,57.20
2022-09-06T08:18:27.265Z,57.50
2022-09-06T08:20:53.939Z,57.60
2022-09-06T08:23:20.701Z,58.30
2022-09-06T08:25:58.465Z,58.00
2022-09-06T08:28:28.178Z,57.80
2022-09-06T08:31:09.633Z,57.70
2022-09-06T08:33:37.637Z,57.80
2022-09-06T08:36:05.856Z,57.60
2022-09-06T08:38:32.628Z,58.30
2022-09-06T08:41:14.506Z,56.70
2022-09-06T08:47:02.226Z,57.70
2022-09-06T08:49:46.104Z,57.00
2022-09-06T08:52:18.886Z,57.10
2022-09-06T08:55:06.381Z,57.00
2022-09-06T08:58:08.284Z,57.60
2022-09-06T09:00:36.938Z,57.80
2022-09-06T09:03:17.210Z,57.30
2022-09-06T09:05:47.977Z,56.60
2022-09-06T09:08:26.205Z,56.60
2022-09-06T09:11:19.097Z,56.40
2022-09-06T09:14:01.662Z,57.10
2022-09-06T09:16:28.524Z,57.20
2022-09-06T09:19:01.722Z,57.60
2022-09-06T09:21:31.225Z,56.90
2022-09-06T09:24:02.943Z,56.90
2022-09-06T09:26:44.213Z,57.10
2022-09-06T09:29:13.525Z,56.80
2022-09-06T09:31:53.347Z,56.10
2022-09-06T09:34:37.796Z,56.30
2022-09-06T09:39:58.531Z,56.40
2022-09-06T09:42:33.814Z,56.80
2022-09-06T09:45:01.671Z,56.60
2022-09-06T09:47:33.635Z,57.70
2022-09-06T09:50:00.462Z,57.10
2022-09-06T09:52:30.935Z,56.80
2022-09-06T09:55:02.497Z,56.90
2022-09-06T09:57:32.639Z,56.30
2022-09-06T10:00:04.479Z,57.30
2022-09-06T10:02:39.066Z,57.10
2022-09-06T10:05:20.351Z,56.20
2022-09-06T10:07:50.156Z,56.70
2022-09-06T10:10:27.404Z,56.70
2022-09-06T10:13:24.249Z,57.10
2022-09-06T10:15:53.557Z,56.90
2022-09-06T10:18:44.459Z,57.20
2022-09-06T10:21:16.008Z,56.60
2022-09-06T10:26:59.118Z,55.60
2022-09-06T10:29:40.988Z,55.50
2022-09-06T10:32:30.978Z,55.60
2022-09-06T10:35:09.461Z,55.60
2022-09-06T10:37:48.867Z,55.70
2022-09-06T10:40:32.037Z,55.40
2022-09-06T10:43:01.392Z,55.30
2022-09-06T10:45:32.932Z,54.40
2022-09-06T10:48:14.604Z,54.80
2022-09-06T10:51:11.879Z,55.10
2022-09-06T10:53:49.825Z,55.40
2022-09-06T10:56:37.612Z,54.50
2022-09-06T11:02:22.105Z,54.90
2022-09-06T11:10:37.839Z,56.40
2022-09-06T11:13:18.298Z,55.50
2022-09-06T11:15:47.912Z,55.40
2022-09-06T11:18:31.086Z,54.90
2022-09-06T11:21:19.540Z,55.10
2022-09-06T11:24:00.451Z,54.40
2022-09-06T11:26:55.650Z,54.60
2022-09-06T11:29:25.439Z,55.70
2022-09-06T11:32:31.532Z,54.90
2022-09-06T11:35:00.861Z,54.40
2022-09-06T11:37:51.103Z,54.30
2022-09-06T11:40:27.334Z,56.00
2022-09-06T11:42:55.031Z,55.10
2022-09-06T11:45:49.744Z,53.70
2022-09-06T11:48:26.558Z,54.40
2022-09-06T11:51:04.023Z,54.00
2022-09-06T11:53:49.183Z,54.40
2022-09-06T11:56:32.158Z,54.90
2022-09-06T11:59:19.167Z,54.10
2022-09-06T12:02:02.560Z,54.20
2022-09-06T12:05:07.314Z,54.80
2022-09-06T12:07:36.436Z,54.30
2022-09-06T12:10:30.207Z,54.50
2022-09-06T12:12:58.062Z,54.40
2022-09-06T12:15:30.823Z,54.00
2022-09-06T12:18:03.880Z,53.90
2022-09-06T12:20:49.024Z,53.90
2022-09-06T12:23:34.862Z,54.10
2022-09-06T12:26:06.970Z,53.70
2022-09-06T12:28:50.207Z,54.10
2022-09-06T12:31:29.684Z,54.50
2022-09-06T12:33:58.022Z,54.50
2022-09-06T12:36:29.762Z,54.10
2022-09-06T12:39:08.599Z,53.50
2022-09-06T12:41:49.303Z,53.30
2022-09-06T12:44:19.217Z,53.60
2022-09-06T12:46:50.145Z,53.60
2022-09-06T12:49:23.363Z,54.20
2022-09-06T12:52:06.982Z,53.80
2022-09-06T12:54:33.967Z,53.40
2022-09-06T12:57:18.168Z,52.90
2022-09-06T13:02:32.579Z,53.10
2022-09-06T13:05:09.881Z,53.00
2022-09-06T13:07:40.937Z,52.90
2022-09-06T13:10:19.066Z,52.80
2022-09-06T13:12:48.991Z,53.30
2022-09-06T13:15:25.181Z,53.60
2022-09-06T13:17:53.490Z,52.90
2022-09-06T13:20:30.459Z,52.60
2022-09-06T13:23:09.912Z,52.10
2022-09-06T13:25:50.695Z,52.20
2022-09-06T13:28:29.231Z,52.20
2022-09-06T13:31:13.881Z,51.40
2022-09-06T13:33:41.329Z,50.80
2022-09-06T13:36:23.038Z,50.90
2022-09-06T13:38:50.792Z,50.10
2022-09-06T13:41:26.466Z,50.50
2022-09-06T13:44:01.667Z,50.50
2022-09-06T13:46:28.490Z,49.40
2022-09-06T13:48:56.524Z,49.70
2022-09-06T13:51:23.696Z,49.00
2022-09-06T13:53:50.883Z,49.70
2022-09-06T13:56:17.786Z,49.20
2022-09-06T13:58:45.200Z,49.10
2022-09-06T14:01:14.273Z,48.90
2022-09-06T14:03:42.297Z,49.10
2022-09-06T14:06:09.757Z,48.40
2022-09-06T14:09:02.953Z,49.20
2022-09-06T14:11:25.423Z,47.60
2022-09-06T14:13:52.136Z,48.30
2022-09-06T14:16:19.033Z,47.80
2022-09-06T14:18:45.880Z,47.70
2022-09-06T14:21:12.738Z,46.70
2022-09-06T14:23:40.489Z,46.80
2022-09-06T14:26:07.309Z,47.00
2022-09-06T14:28:34.283Z,47.10
2022-09-06T14:31:18.851Z,46.40
2022-09-06T14:33:45.992Z,46.30
2022-09-06T14:36:15.627Z,46.50
2022-09-06T14:38:45.063Z,46.70
2022-09-06T14:41:14.472Z,46.50
2022-09-06T14:43:45.151Z,47.10
2022-09-06T14:46:14.403Z,47.20
2022-09-06T14:48:42.660Z,47.20
2022-09-06T14:51:20.791Z,47.00
2022-09-06T14:53:49.207Z,46.80
2022-09-06T14:56:16.748Z,47.20
2022-09-06T14:58:43.687Z,47.20
2022-09-06T15:01:13.331Z,47.20
2022-09-06T15:03:42.799Z,47.40
2022-09-06T15:06:12.819Z,46.90
2022-09-06T15:08:39.526Z,46.70
2022-09-06T15:11:08.198Z,46.70
2022-09-06T15:13:41.695Z,47.00
2022-09-06T15:16:12.731Z,46.80
2022-09-06T15:18:39.474Z,46.50
2022-09-06T15:21:14.428Z,45.50
2022-09-06T15:23:42.977Z,46.40
2022-09-06T15:26:11.031Z,47.50
2022-09-06T15:28:38.869Z,47.50
2022-09-06T15:31:06.379Z,47.60
2022-09-06T15:33:35.484Z,47.60
2022-09-06T15:36:06.347Z,47.30
2022-09-06T15:38:40.425Z,46.80
2022-09-06T15:41:21.436Z,47.20
2022-09-06T15:43:50.541Z,47.00
2022-09-06T15:46:23.160Z,47.10
2022-09-06T15:48:53.627Z,46.90
2022-09-06T15:51:21.343Z,47.30
2022-09-06T15:53:48.338Z,47.30
2022-09-06T15:56:16.902Z,47.20
2022-09-06T15:58:45.904Z,47.50
2022-09-06T16:01:18.948Z,46.70
2022-09-06T16:04:03.535Z,46.90
2022-09-06T16:06:33.350Z,46.80
2022-09-06T16:09:06.322Z,47.30
2022-09-06T16:11:35.678Z,47.20
2022-09-06T16:14:04.389Z,47.00
2022-09-06T16:16:31.703Z,47.50
2022-09-06T16:18:59.465Z,47.30
2022-09-06T16:21:30.348Z,47.40
2022-09-06T16:23:59.603Z,47.20
2022-09-06T16:26:34.909Z,47.20
2022-09-06T16:29:03.335Z,47.40
2022-09-06T16:31:30.378Z,47.40
2022-09-06T16:33:58.005Z,47.90
2022-09-06T16:36:25.676Z,47.90
2022-09-06T16:38:52.438Z,48.40
2022-09-06T16:41:25.802Z,48.20
2022-09-06T16:43:53.543Z,48.40
2022-09-06T16:46:25.269Z,48.70
2022-09-06T16:48:53.412Z,49.80
2022-09-06T16:51:21.516Z,49.30
2022-09-06T16:53:49.332Z,49.20
2022-09-06T16:56:20.143Z,49.40
2022-09-06T16:58:58.576Z,49.20
2022-09-06T17:01:27.215Z,48.80
2022-09-06T17:03:54.460Z,48.90
2022-09-06T17:06:22.122Z,48.40
2022-09-06T17:08:48.940Z,48.50
2022-09-06T17:11:21.117Z,48.50
2022-09-06T17:13:50.255Z,48.70
2022-09-06T17:16:36.880Z,48.10
2022-09-06T17:19:05.008Z,48.30
2022-09-06T17:21:31.919Z,48.20
2022-09-06T17:24:01.761Z,48.30
2022-09-06T17:26:28.968Z,47.20
2022-09-06T17:28:56.959Z,47.20
2022-09-06T17:31:26.297Z,47.70
2022-09-06T17:33:53.759Z,47.70
2022-09-06T17:36:25.687Z,47.40
2022-09-06T17:38:53.834Z,47.80
2022-09-06T17:41:27.374Z,48.40
2022-09-06T17:43:54.943Z,48.40
2022-09-06T17:46:27.841Z,48.50
2022-09-06T17:48:56.163Z,48.80
2022-09-06T17:51:23.006Z,48.60
2022-09-06T17:53:49.766Z,48.50
2022-09-06T17:56:18.036Z,48.60
2022-09-06T17:58:59.304Z,48.90
2022-09-06T18:01:29.594Z,48.90
2022-09-06T18:03:57.582Z,49.40
2022-09-06T18:06:26.880Z,48.90
2022-09-06T18:08:56.525Z,49.20
2022-09-06T18:11:29.271Z,49.20
2022-09-06T18:13:58.734Z,49.70
2022-09-06T18:16:26.898Z,49.70
2022-09-06T18:18:56.632Z,49.80
2022-09-06T18:21:25.775Z,50.00
2022-09-06T18:23:53.728Z,50.60
2022-09-06T18:26:22.909Z,51.50
2022-09-06T18:28:50.502Z,51.60
2022-09-06T18:31:20.600Z,51.90
2022-09-06T18:33:47.493Z,52.00
2022-09-06T18:36:15.820Z,52.60
2022-09-06T18:38:43.039Z,52.20
2022-09-06T18:41:33.909Z,52.20
2022-09-06T18:44:02.857Z,52.50
2022-09-06T18:46:31.619Z,52.30
2022-09-06T18:48:58.671Z,51.60
2022-09-06T18:51:26.183Z,52.10
2022-09-06T18:53:53.285Z,52.00
2022-09-06T18:56:20.418Z,51.80
2022-09-06T18:58:47.536Z,52.20
2022-09-06T19:01:17.482Z,51.40
2022-09-06T19:03:44.678Z,51.90
2022-09-06T19:06:16.031Z,51.20
2022-09-06T19:08:43.397Z,50.90
2022-09-06T19:11:16.997Z,50.50
2022-09-06T19:13:45.756Z,49.70
2022-09-06T19:16:14.274Z,50.10
2022-09-06T19:18:41.812Z,50.30
2022-09-06T19:21:11.202Z,50.40
2022-09-06T19:23:40.353Z,50.40
2022-09-06T19:26:14.990Z,50.80
2022-09-06T19:28:41.732Z,50.80
2022-09-06T19:31:15.645Z,50.90
2022-09-06T19:33:45.478Z,50.90
2022-09-06T19:36:12.899Z,51.00
2022-09-06T19:39:02.557Z,50.90
2022-09-06T19:41:28.190Z,51.10
2022-09-06T19:43:57.184Z,50.90
2022-09-06T19:46:26.685Z,51.10
2022-09-06T19:48:56.129Z,51.30
2022-09-06T19:51:23.763Z,51.50
2022-09-06T19:53:53.519Z,51.60
2022-09-06T19:56:23.518Z,51.80
2022-09-06T19:58:57.363Z,51.80
2022-09-06T20:01:25.948Z,52.10
2022-09-06T20:03:52.822Z,52.20
2022-09-06T20:06:19.638Z,52.20
2022-09-06T20:08:50.704Z,52.30
2022-09-06T20:11:18.454Z,52.50
2022-09-06T20:13:45.486Z,52.70
2022-09-06T20:16:14.748Z,52.70
2022-09-06T20:18:41.821Z,52.80
2022-09-06T20:21:09.674Z,52.80
2022-09-06T20:23:36.740Z,52.90
2022-09-06T20:26:09.739Z,53.10
2022-09-06T20:28:37.079Z,53.10
2022-09-06T20:31:12.278Z,53.10
2022-09-06T20:33:39.615Z,53.10
2022-09-06T20:36:08.658Z,54.20
2022-09-06T20:38:40.532Z,54.30
2022-09-06T20:41:22.776Z,55.20
2022-09-06T20:43:54.645Z,55.00
2022-09-06T20:46:23.945Z,55.50
2022-09-06T20:48:51.899Z,55.30
2022-09-06T20:51:21.215Z,55.30
2022-09-06T20:53:52.861Z,55.50
2022-09-06T20:56:22.594Z,56.00
2022-09-06T20:58:51.913Z,56.50
2022-09-06T21:01:22.734Z,57.60
2022-09-06T21:03:51.984Z,58.00
2022-09-06T21:06:20.405Z,57.90
2022-09-06T21:08:47.803Z,57.50
2022-09-06T21:11:14.520Z,57.80
2022-09-06T21:13:41.388Z,57.70
2022-09-06T21:16:08.760Z,57.60
2022-09-06T21:18:36.071Z,58.30
2022-09-06T21:21:05.949Z,58.50
2022-09-06T21:23:35.924Z,58.70
2022-09-06T21:26:06.196Z,59.20
2022-09-06T21:28:35.522Z,59.80
2022-09-06T21:31:04.658Z,59.50
2022-09-06T21:33:33.070Z,59.50
2022-09-06T21:36:07.026Z,59.70
2022-09-06T21:38:35.379Z,59.60
2022-09-06T21:41:03.169Z,60.10
2022-09-06T21:43:30.227Z,59.90
2022-09-06T21:45:58.198Z,59.90
2022-09-06T21:48:24.968Z,60.40
2022-09-06T21:50:51.791Z,60.60
2022-09-06T21:53:19.253Z,60.60
2022-09-06T21:55:45.915Z,60.70
2022-09-06T21:58:13.377Z,60.50
2022-09-06T22:00:41.566Z,60.40
2022-09-06T22:03:08.693Z,60.40
2022-09-06T22:05:35.802Z,60.00
2022-09-06T22:08:02.742Z,61.00
2022-09-06T22:10:29.515Z,61.40
2022-09-06T22:12:56.211Z,61.70
2022-09-06T22:15:23.671Z,61.40
2022-09-06T22:17:50.347Z,61.80
2022-09-06T22:20:17.148Z,62.20
2022-09-06T22:22:46.890Z,62.40
2022-09-06T22:25:13.827Z,62.70
2022-09-06T22:27:42.862Z,62.30
2022-09-06T22:30:10.117Z,62.40
2022-09-06T22:32:37.128Z,61.90
2022-09-06T22:35:06.046Z,62.30
2022-09-06T22:37:36.539Z,63.00
2022-09-06T22:40:04.372Z,62.90
2022-09-06T22:42:31.171Z,62.80
2022-09-06T22:44:57.817Z,63.00
2022-09-06T22:47:25.419Z,61.10
2022-09-06T22:49:52.218Z,59.30
2022-09-06T22:52:18.907Z,59.70
2022-09-06T22:54:45.745Z,59.50
2022-09-06T22:57:12.678Z,59.80
2022-09-06T22:59:39.441Z,60.40
2022-09-06T23:02:06.139Z,61.00
2022-09-06T23:04:32.885Z,60.20
2022-09-06T23:06:59.637Z,60.60
2022-09-06T23:16:47.961Z,60.70
2022-09-06T23:19:14.757Z,61.40
2022-09-06T23:21:41.453Z,61.20
2022-09-06T23:24:11.312Z,60.70
2022-09-06T23:26:38.038Z,60.60
2022-09-06T23:29:04.837Z,61.10
2022-09-06T23:36:27.987Z,62.10
2022-09-06T23:38:55.966Z,61.40
2022-09-06T23:41:23.586Z,61.80
2022-09-06T23:43:50.297Z,62.20
2022-09-06T23:46:17.665Z,62.50
2022-09-06T23:48:44.470Z,62.70
2022-09-06T23:51:12.109Z,62.40
2022-09-06T23:53:39.286Z,62.40
2022-09-06T23:56:06.870Z,62.80
2022-09-06T23:58:34.286Z,62.90
